East Meredith, New York
Current Conditions -  °F | °C
As of 12:35 PM on Monday 22 Dec 2014 (Local Time) from KNY0 Reporting Station
Overcast Overcast  
Wind Chill: -3°   Ceiling: 1100
Heat Index:   Visibility: 10mi
Dew Point: -3°   Wind: 5mph
Humidity: 85%   Direction: 90°E
Pressure: 30.27"   Gusts: NA
Location:  42.42°N, 74.89°W
Report Text: KNY0 221735Z AUTO 09004KT 10SM OVC011 00/M02 A3027 RMK AO2 T10021025
Loading
Personal Weather Stations






























Interactive Weather Map New forecast layout! Learn more

10-Day Weather Forecast

Advertisements
Track Severe Weather on mobile